Listado único de aspirantes (Periodo de valoración 31 octubre de 2020)


* Listado ordenado por el total Autobaremo. Recuerde que también puede ordenarlo por Apellidos, Nombre

Listado único de aspirantes admitidos en turno libre en la bolsa de selección de personal estatutario temporal, categoría: Técnico Especialista Radiodiagnóstico
Apellidos, Nombre Exp. SAS Auto. Exp. NO SAS Auto. Form. Auto. otros méritos Total Auto. Exp. SAS Baremo Exp. NO SAS Baremo Form. Baremo Otros méritos Punt. Total Baremo Fecha Act.
GALLARDO DÍAZ, ALBA 0,600 1,200 29,000 0,150 30,950 0,600 1,200 29,000 0,000 30,800 21/07/2021
GIL PEINADO, FRANCISCO 2,900 0,050 25,000 3,000 30,950 2,900 0,050 20,000 3,000 25,950 21/07/2021
GUTIERREZ CHIA, MARIA DEL MAR 1,950 0,000 29,000 0,000 30,950 1,950 0,000 20,125 0,000 22,075 21/07/2021
MEDEL OSUNA, MARÍA VICTORIA 0,300 1,650 29,000 0,000 30,950 0,300 1,500 29,000 0,000 30,800 21/07/2021
MUÑOZ BALLESTEROS, FRANCISCO 1,950 0,000 29,000 0,000 30,950 1,950 0,000 29,000 0,000 30,950 21/07/2021
MUÑOZ MARTINEZ, ISABEL MARIA 1,950 0,000 29,000 0,000 30,950 1,950 0,000 19,125 0,000 21,075 21/07/2021
GUTIERREZ DE LEON, LAURA 0,000 9,600 21,325 0,000 30,925 0,000 9,600 17,200 0,000 26,800 21/07/2021
BERRIDO VALVERDE, MARIA DOLORES 0,600 5,300 25,000 0,000 30,900 0,600 3,600 0,800 0,000 5,000 21/07/2021
BONILLA OSUNA, DIEGO ANGEL 1,200 0,000 29,000 0,700 30,900 1,200 0,000 29,000 0,000 30,200 21/07/2021
GARCIA TORREBLANCA, CAROLINA 1,400 0,000 29,000 0,500 30,900 1,400 0,000 29,000 0,500 30,900 21/07/2021
HIDALGO HIDALGO, ANA MARIA 1,600 0,300 29,000 0,000 30,900 1,600 0,300 29,000 0,000 30,900 21/07/2021
MORENO REDECILLAS, VANESA 0,000 1,900 29,000 0,000 30,900 0,000 1,750 29,000 0,000 30,750 21/07/2021
PALACIOS NIETO, MANUEL 0,000 1,900 29,000 0,000 30,900 0,000 0,000 25,000 0,000 25,000 21/07/2021
RAMOS FRESNO, ALEJANDRO 0,000 1,900 29,000 0,000 30,900 0,000 1,900 29,000 0,000 30,900 21/07/2021
SUAREZ CAMPOS, MARIA DEL MAR 2,400 0,000 25,000 3,500 30,900 2,400 0,000 25,000 3,000 30,400 21/07/2021
VACA MUÑOZ, NOELIA 0,000 1,900 29,000 0,000 30,900 0,000 0,000 25,000 0,000 25,000 21/07/2021
CORONA VERGARA, FATIMA 1,750 0,100 29,000 0,000 30,850 1,750 0,000 23,750 0,000 25,500 21/07/2021
CRUZ RODRIGUEZ, FRANCISCO JOSE 0,000 1,800 29,000 0,050 30,850 0,000 1,800 29,000 0,000 30,800 21/07/2021
LOPEZ CASERO, MARIA JOSE 0,750 1,050 29,000 0,050 30,850 0,750 1,050 25,000 0,050 26,850 21/07/2021
LUCENA FERNANDEZ, JOBANNA 1,350 0,000 29,000 0,500 30,850 1,350 0,000 25,000 0,000 26,350 21/07/2021
CARRILLO RUIZ, ÁNGELA 1,800 0,000 29,000 0,000 30,800 1,800 0,000 29,000 0,000 30,800 21/07/2021
CHICA MORAL, IRENE 1,500 0,000 29,000 0,300 30,800 1,500 0,000 29,000 0,000 30,500 21/07/2021
GONZALEZ BRISEÑO, NOELIA 0,200 1,600 29,000 0,000 30,800 0,200 1,600 11,500 0,000 13,300 21/07/2021
LAGARES MARTÍNEZ, MARÍA JOSÉ 1,500 0,000 29,000 0,300 30,800 1,500 0,000 29,000 0,000 30,500 21/07/2021
LOPEZ SALAZAR, ANA INMACULADA 1,000 0,000 29,000 0,800 30,800 1,000 0,000 29,000 0,200 30,200 21/07/2021
LÓPEZ VIDAL, MARIA JOSE 1,600 4,200 25,000 0,000 30,800 1,600 4,200 25,000 0,000 30,800 21/07/2021
MARTÍN GONZÁLEZ, Mª TERESA 10,300 0,000 20,500 0,000 30,800 10,300 0,000 20,500 0,000 30,800 21/07/2021
MARTINEZ URBANO, AUXILIADORA 1,200 0,600 29,000 0,000 30,800 1,200 0,600 29,000 0,000 30,800 21/07/2021
NOVA GÓMEZ, NATALIA 0,000 1,800 29,000 0,000 30,800 0,000 0,000 25,000 0,000 25,000 21/07/2021
PADILLA DE LA FUENTE, DAVID 0,000 0,100 29,000 1,700 30,800 0,000 0,000 6,500 0,000 6,500 21/07/2021
PUNTAS ROBLEDA, YOLANDA 0,600 0,550 29,000 0,650 30,800 0,600 0,000 29,000 0,000 29,600 21/07/2021
REYES BOCANEGRA, JESSICA 1,800 0,000 29,000 0,000 30,800 1,800 0,000 29,000 0,000 30,800 21/07/2021
SANTISTEBAN RODRIGUEZ, JORGE 1,200 0,300 29,000 0,300 30,800 1,200 0,000 29,000 0,000 30,200 21/07/2021
VÁZQUEZ BERRAQUERO, MARÍA BELÉN 5,800 0,000 25,000 0,000 30,800 5,800 0,000 25,000 0,000 30,800 21/07/2021
VAZQUEZ RODRIGUEZ, ANA ISABEL 1,800 0,000 29,000 0,000 30,800 1,800 0,000 25,000 0,000 26,800 21/07/2021
BERNAL GUARCHS, NOELIA 0,700 0,000 29,000 1,050 30,750 0,700 0,000 29,000 0,000 29,700 21/07/2021
FOLCH GARCIA, AFRICA ELISENDA 1,250 0,000 29,000 0,500 30,750 1,250 0,000 29,000 0,000 30,250 21/07/2021
VALENCIA SANTOS, JOSE ANTONIO 0,000 5,750 25,000 0,000 30,750 0,000 2,100 20,400 0,000 22,500 21/07/2021
BRAVO BRAVO, CYNTHIA FABIOLA 0,000 6,000 24,725 0,000 30,725 0,000 0,000 11,125 0,000 11,125 21/07/2021
BAENA RUIZ, FRANCISCO JAVIER 0,000 5,700 25,000 0,000 30,700 0,000 0,000 25,000 0,000 25,000 21/07/2021
GARCIA MACIA, JUAN ANTONIO 1,700 0,000 29,000 0,000 30,700 1,700 0,000 29,000 0,000 30,700 21/07/2021
HIGUERAS TRIBALDOS, MARTIN 5,700 0,000 25,000 0,000 30,700 5,700 0,000 25,000 0,000 30,700 21/07/2021
LEÓN PUENTE, MARÍA BEGOÑA 3,600 0,000 25,000 2,100 30,700 3,600 0,000 25,000 0,000 28,600 21/07/2021
MAÑAS HERNANDEZ, ANTONIO 0,800 0,900 29,000 0,000 30,700 0,800 0,000 29,000 0,000 29,800 21/07/2021
MEDIAVILLA RODRIGUEZ, CRISTIAN 0,000 2,700 25,000 3,000 30,700 0,000 0,500 25,000 3,000 28,500 21/07/2021
OCAÑA ROMERO, NEREA 0,000 5,700 25,000 0,000 30,700 0,000 5,700 25,000 0,000 30,700 21/07/2021
ORTIZ FERNANDO, MARIA JOSE 0,000 2,700 25,000 3,000 30,700 0,000 0,000 25,000 3,000 28,000 21/07/2021
SALINAS LOPEZ, ANGELA 0,000 2,700 25,000 3,000 30,700 0,000 2,700 25,000 3,000 30,700 21/07/2021
BRENES TORO, LYDIA 1,650 0,000 29,000 0,000 30,650 1,650 0,000 29,000 0,000 30,650 21/07/2021
CRESPO DOÑAS, CRISTINA LORENA 0,650 0,000 29,000 1,000 30,650 0,650 0,000 29,000 0,000 29,650 21/07/2021
GALERA RICCA, ELENA 1,050 0,600 29,000 0,000 30,650 1,050 0,600 29,000 0,000 30,650 21/07/2021
GOMEZ FERNANDEZ, SERGIO 0,100 5,550 25,000 0,000 30,650 0,100 2,600 25,000 0,000 27,700 21/07/2021
LEIVA BALLESTA, ISABEL MARIA 0,800 0,850 29,000 0,000 30,650 0,800 0,850 29,000 0,000 30,650 21/07/2021
LÓPEZ SÁNCHEZ, ANA 0,950 0,100 29,000 0,600 30,650 0,950 0,000 29,000 0,000 29,950 21/07/2021
LUCAS LOPEZ, EZEQUIEL 0,000 1,050 25,000 4,600 30,650 0,000 0,900 10,000 0,000 10,900 21/07/2021
MARRUFO PAEZ, ANA BELEN 1,650 0,000 29,000 0,000 30,650 1,650 0,000 29,000 0,000 30,650 21/07/2021
MORA VARELA, PEDRO JESÚS 1,600 0,000 29,000 0,050 30,650 1,600 0,000 25,000 0,050 26,650 21/07/2021
PÉREZ BENAVENTE, MARÍA JOSÉ 0,000 0,000 30,650 0,000 30,650 0,000 0,000 0,000 0,000 0,000 21/07/2021
RODRIGUEZ HARILLO, ALICIA 2,650 0,000 25,000 3,000 30,650 2,650 0,000 25,000 3,000 30,650 21/07/2021
RODRIGUEZ MARTINEZ, ESPERANZA 0,000 1,650 29,000 0,000 30,650 0,000 1,650 29,000 0,000 30,650 21/07/2021
LOCATELLI GARRON, ROBERTO 0,000 13,100 17,525 0,000 30,625 0,000 13,100 17,125 0,000 30,225 21/07/2021
MOLINA SEGURA, MARÍA BELÉN 1,200 8,600 10,825 10,000 30,625 1,200 8,600 4,425 6,000 20,225 21/07/2021
TOCINO RODRIGUEZ, Mª DEL MAR 2,100 6,600 24,025 0,000 30,625 2,100 0,000 14,000 0,000 16,100 21/07/2021
BLANCO PÉREZ, Mª DEL ROCÍO 1,500 0,100 29,000 0,000 30,600 1,500 0,000 29,000 0,000 30,500 21/07/2021
EXPÓSITO VILLEGAS, LAURA 1,400 0,200 29,000 0,000 30,600 1,400 0,200 29,000 0,000 30,600 21/07/2021
FERNANDEZ LINARES, MARIA 1,350 0,250 29,000 0,000 30,600 1,350 0,250 29,000 0,000 30,600 21/07/2021
FLORES LLAMAS, VIOLETA 0,000 1,600 29,000 0,000 30,600 0,000 1,600 29,000 0,000 30,600 21/07/2021
FRANCO LAMOSA, LAURA 1,200 4,400 25,000 0,000 30,600 1,200 4,400 25,000 0,000 30,600 21/07/2021
GIL CASTILLO, CARMEN 1,500 4,100 25,000 0,000 30,600 1,500 0,000 20,250 0,000 21,750 21/07/2021
GÓMEZ GIL, ANA MARIA 0,300 5,300 25,000 0,000 30,600 0,300 0,600 25,000 0,000 25,900 21/07/2021
LEÓN SALAS, BEATRIZ 1,600 0,000 29,000 0,000 30,600 1,600 0,000 5,100 0,000 6,700 21/07/2021
MARTINEZ PINO, PAULA 1,500 3,600 25,000 0,500 30,600 1,500 0,000 25,000 0,100 26,600 21/07/2021
RODRIGUEZ TELLADO, SONIA 0,000 5,600 25,000 0,000 30,600 0,000 0,000 25,000 0,000 25,000 21/07/2021
TRECHERA BARRIOS, AITOR 1,200 4,400 25,000 0,000 30,600 1,200 4,400 25,000 0,000 30,600 21/07/2021
FERRER FERRER, MARIA 0,250 1,300 29,000 0,000 30,550 0,250 0,000 29,000 0,000 29,250 21/07/2021
GONZALEZ JUSTO, ANGELA 1,850 0,000 25,000 3,700 30,550 1,850 0,000 13,000 0,000 14,850 21/07/2021
GONZALEZ MUÑOZ, ANTONIO 0,350 1,200 29,000 0,000 30,550 0,350 1,200 29,000 0,000 30,550 21/07/2021
IBAÑEZ GARCIA, IVAN 0,000 6,550 24,000 0,000 30,550 0,000 5,300 24,000 0,000 29,300 21/07/2021
JIMENEZ JIMENEZ, LUISA 1,200 10,000 19,350 0,000 30,550 1,200 10,000 4,000 0,000 15,200 21/07/2021
JUAREZ JIMENEZ, SARA 1,550 0,000 29,000 0,000 30,550 1,550 0,000 29,000 0,000 30,550 21/07/2021
MARTINEZ PINAR, RAFAEL 1,450 0,100 29,000 0,000 30,550 1,450 0,100 29,000 0,000 30,550 21/07/2021
ORTEGA LÓPEZ, FRANCISCO JAVIER 0,200 1,350 29,000 0,000 30,550 0,200 0,000 5,250 0,000 5,450 21/07/2021
SÁNCHEZ MAESTRE, ANA 1,100 0,050 29,000 0,400 30,550 1,100 0,000 29,000 0,000 30,100 21/07/2021
AMORES LÓPEZ, BLANCA ISABEL 0,000 1,500 29,000 0,000 30,500 0,000 0,000 17,650 0,000 17,650 21/07/2021
BAENA BAENA, ROCÍO 1,200 0,300 29,000 0,000 30,500 1,200 0,300 29,000 0,000 30,500 21/07/2021
CABRERA MOLINERO, ARACELI 1,500 0,000 29,000 0,000 30,500 1,500 0,000 29,000 0,000 30,500 21/07/2021
CAMACHO PIRIZ, INMACULADA 0,000 1,500 29,000 0,000 30,500 0,000 0,000 29,000 0,000 29,000 21/07/2021
CARAVACA TOLEDANO, JUANA MARIA 1,500 0,000 29,000 0,000 30,500 1,500 0,000 26,500 0,000 28,000 21/07/2021
CASTELLANOS GARCIA, MARIA JOSE 0,000 4,500 25,000 1,000 30,500 0,000 4,500 25,000 0,000 29,500 21/07/2021
CRIADO ÁVILA, LOURDES 1,500 0,000 29,000 0,000 30,500 1,500 0,000 29,000 0,000 30,500 21/07/2021
DE LA ROSA ALCÓN, INMACULADA ROCIO 1,500 0,000 29,000 0,000 30,500 1,500 0,000 29,000 0,000 30,500 21/07/2021
DE TORRES NIETO, MARIA JOSEFA 0,900 0,600 29,000 0,000 30,500 0,900 0,600 11,250 0,000 12,750 21/07/2021
FERNANDEZ ARIAS, MARIA TERESA 1,100 0,400 29,000 0,000 30,500 1,100 0,000 18,900 0,000 20,000 21/07/2021
FERNANDEZ PEÑA, MARINA 1,500 0,000 29,000 0,000 30,500 1,500 0,000 29,000 0,000 30,500 21/07/2021
FUENTES VAZQUEZ, JOSE MANUEL 0,000 1,500 29,000 0,000 30,500 0,000 1,500 29,000 0,000 30,500 21/07/2021
MARCOS ALDÓN, ESMERALDA 1,500 0,000 29,000 0,000 30,500 1,500 0,000 12,500 0,000 14,000 21/07/2021
MILLAN JUAREZ, PABLO JAVIER 0,000 5,500 25,000 0,000 30,500 0,000 5,500 25,000 0,000 30,500 21/07/2021
MORENO CARDENAS, ISABEL MARIA 1,500 0,000 29,000 0,000 30,500 1,500 0,000 29,000 0,000 30,500 21/07/2021
OLMEDO PRATS, ALICIA 1,300 0,200 29,000 0,000 30,500 1,300 0,000 29,000 0,000 30,300 21/07/2021
OYONARTE MARTIN, DANIEL 0,000 5,500 25,000 0,000 30,500 0,000 5,500 25,000 0,000 30,500 21/07/2021
PALACIOS ANDREO, ANDRES ENRIQUE 0,000 0,000 29,000 1,500 30,500 0,000 0,000 25,000 0,000 25,000 21/07/2021
PRIOR BLANCO, SALVADOR 1,500 0,000 29,000 0,000 30,500 1,500 0,000 29,000 0,000 30,500 21/07/2021
QUIRÓS SICILIA, ISABEL 1,500 0,000 29,000 0,000 30,500 1,500 0,000 29,000 0,000 30,500 21/07/2021
ROMERO VIDAL, CRISTOBAL 1,500 0,000 29,000 0,000 30,500 1,500 0,000 29,000 0,000 30,500 21/07/2021
SAAVEDRA PAREJA, ROCIO 1,500 0,000 29,000 0,000 30,500 1,500 0,000 19,000 0,000 20,500 21/07/2021
WILCZYNSKI PALMA, MARTIN 0,000 3,500 25,000 2,000 30,500 0,000 0,000 18,950 0,700 19,650 21/07/2021
GARCÍA ROMERO, MARIA DEL SEÑOR 1,450 0,000 29,000 0,000 30,450 1,450 0,000 29,000 0,000 30,450 21/07/2021
GUTIERREZ HERNANDEZ, CRISTINA 1,450 0,000 29,000 0,000 30,450 1,450 0,000 29,000 0,000 30,450 21/07/2021
NAVAFRIAS CASADO, INMACULADA C. 1,200 0,250 29,000 0,000 30,450 1,200 0,250 7,650 0,000 9,100 21/07/2021
RUIZ SÁNCHEZ, LAURA 0,250 0,700 29,000 0,500 30,450 0,250 0,000 4,000 0,000 4,250 21/07/2021
VILLANUEVA GARCÍA, VERÓNICA 0,850 1,600 25,000 3,000 30,450 0,850 0,000 25,000 3,000 28,850 21/07/2021
ARRATIA ALEX, ROSARIO 1,400 0,000 29,000 0,000 30,400 1,400 0,000 29,000 0,000 30,400 21/07/2021
BARRERA GUTIERREZ, VIRGINIA 0,000 8,300 19,100 3,000 30,400 0,000 5,600 19,100 3,000 27,700 21/07/2021
CAÑAS LÓPEZ, ENCARNACIÓN 0,000 0,250 29,000 1,150 30,400 0,000 0,000 25,000 0,000 25,000 21/07/2021
CASTRO TRAPERO, MIREIA 0,000 0,400 29,000 1,000 30,400 0,000 0,000 29,000 0,000 29,000 21/07/2021
DE LAS CUEVAS PELAYO, ESTEBAN 0,000 2,400 25,000 3,000 30,400 0,000 0,600 25,000 3,000 28,600 21/07/2021
DOMÍNGUEZ RAMÍREZ, ÁLVARO 0,000 0,000 29,000 1,400 30,400 0,000 0,000 29,000 0,000 29,000 21/07/2021
MARIN OLMEDO, ANA BELEN 0,000 5,400 25,000 0,000 30,400 0,000 0,000 0,000 0,000 0,000 21/07/2021
MARTINEZ GRANADOS, RUBEN 0,900 0,000 29,000 0,500 30,400 0,900 0,000 29,000 0,000 29,900 21/07/2021
MUÑOZ GARCÍA, DIEGO MIGUEL 16,200 0,000 14,200 0,000 30,400 16,200 0,000 14,200 0,000 30,400 21/07/2021
MUÑOZ ROLDAN, FRANCISCO RAUL 1,650 3,750 25,000 0,000 30,400 1,650 3,750 25,000 0,000 30,400 21/07/2021
NOGUERAS ÁLVAREZ, MARTA 3,900 1,500 25,000 0,000 30,400 3,900 1,500 25,000 0,000 30,400 21/07/2021
PIN LOPEZ, FRANCISCO 0,000 5,400 25,000 0,000 30,400 0,000 5,400 25,000 0,000 30,400 21/07/2021
ROMERO QUESADA, REBECA 0,000 5,400 25,000 0,000 30,400 0,000 0,600 25,000 0,000 25,600 21/07/2021
SANCHEZ GOMEZ, ROBERTO 0,000 5,400 25,000 0,000 30,400 0,000 0,600 18,775 0,000 19,375 21/07/2021
TORANZO NÚÑEZ, FRANCISCO JAVIER 0,900 0,000 29,000 0,500 30,400 0,900 0,000 29,000 0,000 29,900 21/07/2021
BELLIDO FERNANDEZ, ESTEBAN 0,900 4,300 25,000 0,150 30,350 0,900 3,400 7,500 0,000 11,800 21/07/2021
ENRIQUEZ ENRIQUE, MARIA 0,000 4,200 25,000 1,150 30,350 0,000 3,000 25,000 0,275 28,275 21/07/2021
GALLEGO PLAZA, MARIA ROSA 1,350 0,000 29,000 0,000 30,350 1,350 0,000 29,000 0,000 30,350 21/07/2021
GONZALEZ GARCIA, PAULA 0,000 1,350 29,000 0,000 30,350 0,000 0,750 29,000 0,000 29,750 21/07/2021
LIMON YUSTE, MARIO 5,350 0,000 25,000 0,000 30,350 5,350 0,000 25,000 0,000 30,350 21/07/2021
LÓPEZ GARCÍA, PEDRO 1,250 0,100 29,000 0,000 30,350 1,250 0,000 25,000 0,000 26,250 21/07/2021
MONCAYO GONZALEZ, PATRICIA 0,350 1,000 29,000 0,000 30,350 0,350 0,400 29,000 0,000 29,750 21/07/2021
RODRIGUEZ POLEY, ANA 1,250 0,000 29,000 0,100 30,350 1,250 0,000 29,000 0,100 30,350 21/07/2021
RUIZ RODELAS, CRISTINA 4,800 0,550 25,000 0,000 30,350 4,800 0,550 25,000 0,000 30,350 21/07/2021
VALENTIN SANTIAGO, SARA 1,350 0,000 29,000 0,000 30,350 1,350 0,000 18,550 0,000 19,900 21/07/2021
CANTON CASTELLO, SUSANA 0,600 0,000 29,000 0,700 30,300 0,600 0,000 29,000 0,000 29,600 21/07/2021
LABRADOR VALLS, ANGELA MARIA 0,700 4,600 25,000 0,000 30,300 0,700 0,000 25,000 0,000 25,700 21/07/2021
MARTÍNEZ CHICA, ANA BELÉN 0,000 1,400 28,900 0,000 30,300 0,000 0,000 28,900 0,000 28,900 21/07/2021
MARTÍNEZ GARCÍA, ANA VANESSA 0,300 6,000 24,000 0,000 30,300 0,300 0,000 16,500 0,000 16,800 21/07/2021
PEREZ LOPEZ, CRISTINA 1,200 0,000 29,000 0,100 30,300 1,200 0,000 25,000 0,050 26,250 21/07/2021
RAMÍREZ HERRERA, MARIA DEL MAR 1,250 0,050 29,000 0,000 30,300 1,250 0,000 29,000 0,000 30,250 21/07/2021
RASTROLLO ALCONCHEL, MARIA JESUS 1,300 0,000 29,000 0,000 30,300 1,300 0,000 29,000 0,000 30,300 21/07/2021
VALLE MARTINEZ, ANA ISABEL 0,900 0,000 29,000 0,400 30,300 0,900 0,000 29,000 0,000 29,900 21/07/2021
ARANDA GONZALEZ, JUAN IGNACIO 1,250 0,000 29,000 0,000 30,250 1,250 0,000 29,000 0,000 30,250 21/07/2021
GALLARDO CANO, JUANA MARÍA 1,450 3,800 25,000 0,000 30,250 1,450 3,800 25,000 0,000 30,250 21/07/2021
GALLARDO VICO, ANTONIA 5,250 0,000 25,000 0,000 30,250 5,250 0,000 25,000 0,000 30,250 21/07/2021
GONZÁLEZ MORENO, SORAYA 2,350 0,050 27,850 0,000 30,250 2,350 0,050 27,850 0,000 30,250 21/07/2021
HERNANDEZ CHAMORRO, INMACULADA 0,650 0,300 29,000 0,300 30,250 0,650 0,000 29,000 0,300 29,950 21/07/2021
JIMENEZ PEREZ, CARMEN Mª 0,850 0,000 29,000 0,400 30,250 0,850 0,000 25,000 0,000 25,850 21/07/2021
MUÑOZ PEÑALVER, ALBA MARÍA 0,000 0,500 29,000 0,750 30,250 0,000 0,450 29,000 0,000 29,450 21/07/2021
PLAZA MORENO, BLANCA 1,250 0,000 29,000 0,000 30,250 1,250 0,000 29,000 0,000 30,250 21/07/2021
RIVERA ROBLES, LAURA 1,250 0,000 29,000 0,000 30,250 1,250 0,000 29,000 0,000 30,250 21/07/2021
ÁLVAREZ AVILÉS, MIREYA 0,100 4,100 25,000 1,000 30,200 0,100 0,000 25,000 0,000 25,100 21/07/2021
ANGEL VIDAL, MARIA DEL ROCIO 2,200 0,000 25,000 3,000 30,200 2,200 0,000 25,000 3,000 30,200 21/07/2021
ANGULO ROMÁN, ANTONIO 0,000 1,200 29,000 0,000 30,200 0,000 0,300 29,000 0,000 29,300 21/07/2021
ARAGÓN GÓMEZ, MANUELA 1,200 0,000 29,000 0,000 30,200 1,200 0,000 25,000 0,000 26,200 21/07/2021
BAENA BLANCAT, MARIA DE LOS ANGELES 0,000 1,200 29,000 0,000 30,200 0,000 1,200 29,000 0,000 30,200 21/07/2021
BRAVO PÉREZ, INMACULADA 1,200 0,000 29,000 0,000 30,200 1,200 0,000 29,000 0,000 30,200 21/07/2021
CARO FERNANDEZ, ISABEL 1,150 0,050 29,000 0,000 30,200 1,150 0,000 19,800 0,000 20,950 21/07/2021
DOMINGUEZ CABALLERO, JOSE MANUEL 0,000 1,200 29,000 0,000 30,200 0,000 0,300 25,000 0,000 25,300 21/07/2021
FERNÁNDEZ CÁRDENAS, ANA MARÍA 0,000 1,200 29,000 0,000 30,200 0,000 1,200 28,600 0,000 29,800 21/07/2021
GIL CARRASCO, JAVIER 1,200 0,000 29,000 0,000 30,200 1,200 0,000 29,000 0,000 30,200 21/07/2021
GIL GONZÁLEZ, Mª PILAR 4,600 0,600 25,000 0,000 30,200 4,600 0,600 25,000 0,000 30,200 21/07/2021
HERNANDEZ GIL, PILAR 1,200 0,000 29,000 0,000 30,200 1,200 0,000 29,000 0,000 30,200 21/07/2021
LUCAS MANZANO, MARIA DEL CARMEN 1,050 0,150 29,000 0,000 30,200 1,050 0,150 29,000 0,000 30,200 21/07/2021
MASA MANJON, BEATRIZ 0,000 0,900 26,300 3,000 30,200 0,000 0,900 26,300 3,000 30,200 21/07/2021
MIÑARRO DORADO, M LUISA 5,200 0,000 25,000 0,000 30,200 5,200 0,000 7,625 0,000 12,825 21/07/2021
MOLERO MORENO, MARIA JOSE 1,200 0,000 29,000 0,000 30,200 1,200 0,000 29,000 0,000 30,200 21/07/2021
MONTERO ALBA, Mª DEL CARMEN 5,400 0,000 21,800 3,000 30,200 5,400 0,000 21,800 3,000 30,200 21/07/2021
MOSCOSO TEJERO, MARIA DEL CARMEN 0,900 0,300 29,000 0,000 30,200 0,900 0,300 29,000 0,000 30,200 21/07/2021
MUÑOZ FERNANDEZ, MARIA DE GUIA 0,000 1,200 29,000 0,000 30,200 0,000 0,000 29,000 0,000 29,000 21/07/2021
RAMIREZ RUEDA, ALEJANDRO 0,000 5,200 25,000 0,000 30,200 0,000 3,300 25,000 0,000 28,300 21/07/2021
RODRIGUEZ MORALES, SARA 0,000 0,800 25,000 4,400 30,200 0,000 0,700 25,000 0,000 25,700 21/07/2021
ROLDAN AGUAYO, MARIA DEL VALLE 0,000 1,200 29,000 0,000 30,200 0,000 0,000 25,000 0,000 25,000 21/07/2021
SANCHEZ MARTIN, INMACULADA CONSUELO 1,200 0,000 29,000 0,000 30,200 1,200 0,000 25,000 0,000 26,200 21/07/2021
SECO ALDON, CELIA 1,000 4,200 25,000 0,000 30,200 1,000 4,200 3,950 0,000 9,150 21/07/2021
SEVILLANO MORALES, MARIA REYES 0,000 1,200 29,000 0,000 30,200 0,000 0,000 26,670 0,000 26,670 21/07/2021
STAN ., MANUELA 1,200 0,000 29,000 0,000 30,200 1,200 0,000 29,000 0,000 30,200 21/07/2021
VILCHEZ JIMENEZ, ALEJANDRO 1,200 0,000 29,000 0,000 30,200 1,200 0,000 29,000 0,000 30,200 21/07/2021
MATEOS MUÑOZ, JOSÉ DANIEL 1,500 0,000 28,675 0,000 30,175 1,500 0,000 8,375 0,000 9,875 21/07/2021
CASTELL CANO, ROCIO 1,000 0,050 29,000 0,100 30,150 1,000 0,000 24,750 0,100 25,850 21/07/2021
ISIDORO CARMONA, MARIO 0,000 5,150 25,000 0,000 30,150 0,000 5,150 25,000 0,000 30,150 21/07/2021
MUÑOZ PEREZ, JOSE ANGEL 1,150 0,000 29,000 0,000 30,150 1,150 0,000 21,000 0,000 22,150 21/07/2021
OLIVEROS MARIN, JOSE MANUEL 0,200 0,950 29,000 0,000 30,150 0,200 0,550 29,000 0,000 29,750 21/07/2021
PEREZ REDONDO, LAURA 0,000 1,150 29,000 0,000 30,150 0,000 0,000 19,100 0,000 19,100 21/07/2021
REYES GARCÍA, ANTONIO JESÚS 0,100 0,800 29,000 0,250 30,150 0,100 0,800 29,000 0,000 29,900 21/07/2021
ROMERO CANTERO, RAFAEL 1,150 0,000 29,000 0,000 30,150 1,150 0,000 29,000 0,000 30,150 21/07/2021
RUIZ RODRÍGUEZ, JESÚS 0,050 1,100 29,000 0,000 30,150 0,050 1,100 29,000 0,000 30,150 21/07/2021
GARCIA MILLA, MARIA JOSE 0,000 0,000 30,140 0,000 30,140 0,000 0,000 24,140 0,000 24,140 21/07/2021
LOPEZ FLORINDO, Mª DOLORES 1,800 6,000 22,625 0,000 30,125 1,800 0,000 8,125 0,000 9,925 21/07/2021
REINA GONZALEZ, FRANCISCO JAVIER 0,150 0,900 29,000 0,075 30,125 0,150 0,550 24,000 0,075 24,775 21/07/2021
BALLESTA EXPÓSITO, PATRICIA 0,450 0,650 29,000 0,000 30,100 0,450 0,650 29,000 0,000 30,100 21/07/2021
BANDERA ÁLVAREZ, ROCIO 0,000 5,100 25,000 0,000 30,100 0,000 1,800 25,000 0,000 26,800 21/07/2021
CAPILLA REBOLLEDO, VICTOR 0,000 5,100 25,000 0,000 30,100 0,000 5,100 25,000 0,000 30,100 21/07/2021
CARO SANCHEZ, MARIA VICTORIA 0,000 5,100 25,000 0,000 30,100 0,000 2,100 25,000 0,000 27,100 21/07/2021
FERNANDEZ CAÑUELO, MARIA DOLORES 5,100 0,000 25,000 0,000 30,100 5,100 0,000 25,000 0,000 30,100 21/07/2021
FERNANDEZ GARCIA, LAURA 2,750 0,350 24,000 3,000 30,100 2,750 0,350 19,000 3,000 25,100 21/07/2021
GARCIA DE LA HAZA, JOSE 1,100 0,000 29,000 0,000 30,100 1,100 0,000 29,000 0,000 30,100 21/07/2021
GONZALEZ RIVERO, LUCIA 0,700 0,400 29,000 0,000 30,100 0,700 0,400 29,000 0,000 30,100 21/07/2021

- Al posicionarse sobre el número de página le aparecerá el rango de notas de autobaremo que contiene dicha página

[1]  [2]  [3]  [4]  [5]  [6]  [7]  [8]  [9]  [10]  [11]  [12]  [13]  [14]  [15]  [16]  [17]  [18]  [19]  [20]  [21]  [22]  [23]  [24]  [25]  [26]  [27]  [28]  [29]  [30]  [31]  [32]  [33]  [34]  [35] 


Color de candidatos/as que por autobaremo alcanzan puntuación mínima para formar parte de la bolsa Candidatos/as que por autobaremo alcanzan puntuación mínima para formar parte de la bolsa

Color de Candidatos/as que no alcanzan puntuación mínima para formar parte de la bolsa Candidatos/as que no alcanzan puntuación mínima para formar parte de la bolsa



[Volver]